Grand Canyon National Park Airport Grand Canyon US
ICAO: KGCN
IATA: GCN
Category: Medium
Scheduled Services: Yes

Elevation: 6609 ft
TransAlt. 18000 ft.

Airport Communications:
ASOS:124.3
ATIS:124.3
LOS ANGELES CNTR:124.85
CTAF:119
GND:121.9
PRESCOTT RDO:122.3
CANYON TWR:119
UNICOM:122.95

KGCN Zoom In..

If Map Doesn't Load, Click Here

Runways:

(A) RW 03 length 8999 ft width 150 ft
ILS 108.90 / hdg 27

(B) RW 21 length 8999 ft width 150 ft
---- / hdg 207

Location; KGCN
Day. 26 / Time. 09.54 Zulu
* Altimeter: 30.28
* Temperature: 04° c. 39.2°f.
* Wind from: 000° Speed 00 kn.
Dewpoint: 02° c.
Visibility: 10 Statute Miles.
Clouds: Clear (automated report).

KGCN 260954Z 00000KT 10SM CLR 04/02 A3028 RMK AO2 SLP182 T00440017


Wind - Calm.

 
 
jpsmedia.com for Web Design worldairports.se 2018   terms of use